首页
METAR-TAF:

METAR-TAF

机场 :

鲁昂, 法国

纬度: 49-23N, 经度: 001-11E, 海拔: 157米

当前天气观测

该预报发布于31分钟前的21:00 UTC
风速4节,风向西
温度 15°C
湿度 94%
气压 1012 hPa
能見度: 6000
少量云层高于4000英尺
散云层高于4900英尺

METAR: LFOP 192100Z AUTO 26004KT 6000 FEW040 SCT049 15/14 Q1012

时间: 23:31 (21:31 UTC)

预报

该预报发布于4小时和31分钟前的17:00 UTC
预报有效从19日的 18点(UTC)到 20日的 18点(UTC)
风速10节,风向西转西南
能见度10公里或以上
散云层高于3000英尺
短暂存在
从 19日的 18点(UTC)到 19日的 20点(UTC)
能見度: 3000
多云层高于700英尺
轻雾
几率 30% :
短暂存在
从 20日的 02点(UTC)到 20日的 06点(UTC)
多云层高于800英尺

TAF: LFOP 191700Z 1918/2018 24010KT 9999 SCT030 TEMPO 1918/1920 3000 BR BKN007 PROB30 TEMPO 2002/2006 BKN008

超过4000个机场的气象观测和天气预报(METAR&TAF报告)。

可查询的气象台以黄色和红色小点在地图上表示。

将鼠标移到小点上方,可查看气象台名称。

然后点击查看天气观测和预报。

如需切换地图:点击带黑十字的绿色按钮放大地图;点击带横线的绿色按钮缩小地图;或者点击绿色箭头查看邻近地区的地图。


METAR-TAF: